罗盘
风向 的 风向 的 风向 到 风向 250°
风: 4 kt, 2 beaufort

添加一条跑道以查看侧风和逆风信息。

添置 跑道
0 6.000 12.000 18.000 24.000 30.000
FEW 23.000 ft
METAR EDHI 050050Z AUTO 25004KT 220V280 9999 // FEW230/// 13/11 Q1019

METAR Fischbek Airfield

Fischbek Airfield是Fischbek,德国中的小机场。 视场标高为217 ft。

这份报告是针对2022年7月5日 2:50 上午, 当地时间在Hamburg-Finkenwerder Airport进行的。

机场观察

风向为250°,速度为4 kt。 风向在220°和280°之间变化。

可见度为6¼ mi 或者更多。

有几云在23.000 ft的高度。 没有观察到天花板。

温度和风寒是55 °F。 露点为52 °F,相对湿度为88%。 海平面上的气压为30,09 inHg (QNH)。

白天

今天,太阳从4:59 上午升起,在9:50 下午降落。 这适用于Fischbek Airfield,世界夏令时可能有所不同。 当地时间与世界标准时间之间的时差为+2 小时。 夏令时目前正在进行中。

公司介绍

我们没有关于这个机场的公司信息。

体会

到Vliegles.nl去找飞行课程,跳伞和其他飞行体验。 浏览页面,了解Fischbek Airfield附近所有可用的活动。 你也可以使用搜索功能来寻找你所在地附近的特定飞行课程、跳伞或其他飞行体验。

您会帮助我们保持Metar-Taf.com正常运行吗?
您的贡献有助于网站的进一步开发并支付费用。

没有更多广告

您是捐款5美元还是更多?然后,我们将永远不会再向您展示广告,这是我们永恒的感谢!
捐赠前先登录

乌云

23.000 ft FEW 几云

温度 & 天气

温度 55 °F
露点 52 °F
相对湿度 88%
Kp-index 0  

公司介绍

新增公司

下载我们的应用程序

在您的手机和平板电脑上轻松访问所有航空天气。
有许多网站上没有的功能,如离线支持和个人机场列表。

Studio Eveline

Benalmádena
España

我们和第三方通过cookies跟踪您在我们网站上的上网行为。如果您继续,我们认为您同意我们的cookie政策。 了解更多